Hlavní strana
METAR-TAF:

METAR-TAF

Letiště :

Letiště Helsinky-Vantaa

Helsinky, Finsko

zeměpisná šířka: 60-19N, zeměpisná délka: 024-58E, výška: 51 m

Aktuální stav počasí

Zpráva byla vytvořena před 17 minutami, v 22:20 UTC
Západoseverozápadní vítr 9 kt
Teplota -1°C
Vlhkost vzduchu 74%
Tlak 1005 hPa
Viditelnost 10 km a více
Žádná oblačnost pod 1500 m, nevyskytují se cumulonimby.

METAR: EFHK 252220Z 29009KT CAVOK M01/M05 Q1005 NOSIG

Čas: 00:37 (22:37 UTC)

Předpověď počasí

Zpráva byla vytvořena před 2 hodinami a 6 minutami, v 20:31 UTC
Předpověď platná od 25 v 21 UTC do 26 v 21 UTC
Západoseverozápadní vítr 9 kt
Viditelnost 10 km a více
Žádná oblačnost pod 1500 m, nevyskytují se cumulonimby.
Změna
od 26 v 07 UTC do 26 v 09 UTC
Severoseverozápadní vítr 14 kt s nárazy do 24 kt

TAF: EFHK 252031Z 2521/2621 29009KT CAVOK BECMG 2607/2609 34014G24KT

Stav a předpovědi počasí z více než 4 000 letišť (zprávy METAR a TAF).

Červené a žluté tečky na mapě představují dostupné meteorologické stanice.

Když kurzor umístíte na tečku, zobrazí se název stanice.

Pak kliknutím zobrazíte stav a předpověď počasí.

Chcete-li změnit mapu, kliknutím na zelené tlačítko se znaménkem +mapu přiblížíte, kliknutím na zelené tlačítko se znaménkem – mapu oddálíte a kliknutím na zelené šipky přejdete na sousední mapy.


METAR-TAF: